createdAt,value
2022-12-25T07:26:24.399Z,7.76
2022-12-25T07:29:14.645Z,7.82
2022-12-25T11:57:57.620Z,10.39
2022-12-25T12:23:24.102Z,19.19
2022-12-25T12:31:13.062Z,19.74
2022-12-25T12:34:24.314Z,19.46
2022-12-25T12:37:24.816Z,18.32
2022-12-25T12:40:30.754Z,17.20
2022-12-25T12:43:29.607Z,16.20
2022-12-25T12:46:27.981Z,15.47
2022-12-25T12:49:23.946Z,14.90
2022-12-25T12:52:27.443Z,14.57
2022-12-25T12:55:29.179Z,14.20
2022-12-25T12:58:30.050Z,13.78
2022-12-25T13:01:29.776Z,13.43
2022-12-25T13:04:34.892Z,13.05
2022-12-25T13:07:34.441Z,12.64
2022-12-25T13:10:27.402Z,12.29
2022-12-25T13:13:21.774Z,12.01
2022-12-25T13:16:19.032Z,11.80
2022-12-25T13:19:13.730Z,11.68
2022-12-25T13:22:26.031Z,11.66
2022-12-25T13:25:22.696Z,11.60
2022-12-25T13:28:18.475Z,11.55
2022-12-25T13:31:15.787Z,11.53
2022-12-25T13:34:07.372Z,11.69
2022-12-25T13:36:59.661Z,11.91
2022-12-25T13:39:57.363Z,12.09
2022-12-25T13:42:52.771Z,12.24
2022-12-25T13:45:43.368Z,12.41
2022-12-25T13:48:34.194Z,12.41
2022-12-25T13:51:24.765Z,12.28
2022-12-25T13:54:16.295Z,12.27
2022-12-25T13:57:10.689Z,12.22
2022-12-25T14:00:04.629Z,12.07
2022-12-25T14:02:55.996Z,11.87
2022-12-25T14:05:46.880Z,11.66
2022-12-25T14:08:37.939Z,11.48
2022-12-25T14:11:30.245Z,11.27
2022-12-25T14:14:23.518Z,11.09
2022-12-25T14:17:16.462Z,11.02
2022-12-25T14:20:09.051Z,11.00
2022-12-25T14:23:01.018Z,10.99
2022-12-25T14:25:51.640Z,11.05
2022-12-25T14:28:42.162Z,11.10
2022-12-25T14:31:34.259Z,11.07
2022-12-25T14:34:28.707Z,11.07
2022-12-25T14:37:20.809Z,11.16
2022-12-25T14:40:23.687Z,11.12
2022-12-25T14:43:23.360Z,11.05
2022-12-25T14:46:24.158Z,11.00
2022-12-25T14:49:26.901Z,11.00
2022-12-25T14:52:22.698Z,10.97
2022-12-25T14:55:21.124Z,10.89
2022-12-25T14:58:21.092Z,10.86
2022-12-25T15:01:25.410Z,10.81
2022-12-25T15:04:17.469Z,10.69
2022-12-25T15:07:10.665Z,10.58
2022-12-25T15:10:57.051Z,10.48
2022-12-25T15:13:15.825Z,10.36
2022-12-25T15:16:16.283Z,10.27
2022-12-25T15:19:08.478Z,10.18
2022-12-25T15:22:02.638Z,10.14
2022-12-25T15:25:02.504Z,10.08
2022-12-25T15:27:55.882Z,10.00
2022-12-25T15:30:46.617Z,9.92
2022-12-25T15:33:43.982Z,9.83
2022-12-25T15:36:35.624Z,9.75
2022-12-25T15:39:25.993Z,9.69
2022-12-25T15:42:22.938Z,9.64
2022-12-25T15:45:20.972Z,9.58
2022-12-25T15:48:11.850Z,9.53
2022-12-25T15:51:04.965Z,9.46
2022-12-25T15:53:56.123Z,9.42
2022-12-25T15:56:48.803Z,9.40
2022-12-25T15:59:43.598Z,9.39
2022-12-25T16:02:34.746Z,9.36
2022-12-25T16:05:26.306Z,9.32
2022-12-25T16:08:16.784Z,9.28
2022-12-25T16:11:08.493Z,9.29
2022-12-25T16:14:00.659Z,9.31
2022-12-25T16:17:18.933Z,9.31
2022-12-25T16:20:17.464Z,9.32
2022-12-25T16:23:10.661Z,9.35
2022-12-25T16:26:04.283Z,9.36
2022-12-25T16:29:01.164Z,9.36
2022-12-25T16:32:01.621Z,9.36
2022-12-25T16:34:52.512Z,9.37
2022-12-25T16:37:51.295Z,9.35
2022-12-25T16:40:55.395Z,9.32
2022-12-25T16:43:56.223Z,9.28
2022-12-25T16:46:47.813Z,9.27
2022-12-25T16:49:38.651Z,9.27
2022-12-25T16:52:29.614Z,9.28
2022-12-25T16:55:24.981Z,9.28
2022-12-25T16:58:18.631Z,9.26
2022-12-25T17:01:15.228Z,9.24
2022-12-25T17:04:05.859Z,9.22
2022-12-25T17:06:56.289Z,9.18
2022-12-25T17:09:47.878Z,9.16
2022-12-25T17:12:38.282Z,9.17
2022-12-25T17:15:36.226Z,9.21
2022-12-25T17:18:28.929Z,9.25
2022-12-25T17:21:19.243Z,9.29
2022-12-25T17:24:10.473Z,9.33
2022-12-25T17:27:01.035Z,9.35
2022-12-25T17:29:53.895Z,9.34
2022-12-25T17:32:54.076Z,9.32
2022-12-25T17:35:48.207Z,9.25
2022-12-25T17:38:41.551Z,9.18
2022-12-25T17:41:32.096Z,9.11
2022-12-25T17:44:22.333Z,9.04
2022-12-25T17:47:12.653Z,9.00
2022-12-25T17:50:03.065Z,8.97
2022-12-25T17:52:54.013Z,8.96
2022-12-25T17:55:44.560Z,8.94
2022-12-25T17:58:39.308Z,8.92
2022-12-25T18:01:31.950Z,8.91
2022-12-25T18:04:22.321Z,8.86
2022-12-25T18:07:12.803Z,8.84
2022-12-25T18:10:03.297Z,8.81
2022-12-25T18:12:53.831Z,8.81
2022-12-25T18:15:44.440Z,8.81
2022-12-25T18:18:35.136Z,8.82
2022-12-25T18:21:28.745Z,8.83
2022-12-25T18:24:19.478Z,8.85
2022-12-25T18:27:09.940Z,8.85
2022-12-25T18:30:00.610Z,8.86
2022-12-25T18:32:51.740Z,8.86
2022-12-25T18:35:42.787Z,8.77
2022-12-25T18:38:33.344Z,8.61
2022-12-25T18:41:27.110Z,8.44
2022-12-25T18:44:21.325Z,8.27
2022-12-25T18:47:13.836Z,8.09
2022-12-25T18:50:04.395Z,7.92
2022-12-25T18:52:54.830Z,7.76
2022-12-25T18:55:45.430Z,7.61
2022-12-25T18:58:37.616Z,7.39
2022-12-25T19:01:28.169Z,7.18
2022-12-25T19:04:18.826Z,6.99
2022-12-25T19:07:10.910Z,6.81
2022-12-25T19:10:04.436Z,6.62
2022-12-25T19:12:57.912Z,6.43
2022-12-25T19:15:49.970Z,6.29
2022-12-25T19:18:41.363Z,6.18
2022-12-25T19:21:31.849Z,6.07
2022-12-25T19:24:25.107Z,5.98
2022-12-25T19:27:15.501Z,5.88
2022-12-25T19:30:06.683Z,5.72
2022-12-25T19:32:59.724Z,5.62
2022-12-25T19:35:50.129Z,5.48
2022-12-25T19:38:40.587Z,5.40
2022-12-25T19:41:31.414Z,5.32
2022-12-25T19:44:22.126Z,5.27
2022-12-25T19:47:16.082Z,5.22
2022-12-25T19:50:10.246Z,5.13
2022-12-25T19:53:00.781Z,4.95
2022-12-25T19:55:52.453Z,4.72
2022-12-25T19:58:45.079Z,4.48
2022-12-25T20:01:43.581Z,4.23
2022-12-25T20:04:34.320Z,4.01
2022-12-25T20:07:26.214Z,3.83
2022-12-25T20:10:17.383Z,3.71
2022-12-25T20:13:07.830Z,3.62
2022-12-25T20:16:02.453Z,3.56
2022-12-25T20:18:53.470Z,3.52
2022-12-25T20:21:44.039Z,3.51
2022-12-25T20:24:34.565Z,3.51
2022-12-25T20:27:25.459Z,3.52
2022-12-25T20:30:16.321Z,3.53
2022-12-25T20:33:21.279Z,3.53
2022-12-25T20:36:13.010Z,3.56
2022-12-25T20:39:12.875Z,3.61
2022-12-25T20:42:09.808Z,3.64
2022-12-25T21:32:16.285Z,4.17
2022-12-25T21:35:05.433Z,4.16
2022-12-25T21:37:53.859Z,4.17
2022-12-25T21:40:42.352Z,4.18
2022-12-25T21:43:30.891Z,4.20
2022-12-25T21:46:19.759Z,4.20
2022-12-25T21:49:09.133Z,4.16
2022-12-25T21:52:10.424Z,4.13
2022-12-25T21:54:58.968Z,4.10
2022-12-25T21:57:47.768Z,4.08
2022-12-25T22:00:38.831Z,4.06
2022-12-25T22:03:27.430Z,4.03
2022-12-25T22:06:34.793Z,4.01
2022-12-25T22:09:23.448Z,3.99
2022-12-25T22:12:34.131Z,3.97
2022-12-25T22:15:22.971Z,3.94
2022-12-25T22:18:29.621Z,3.91
2022-12-25T22:21:19.779Z,3.85
2022-12-25T22:24:09.099Z,3.80
2022-12-25T22:26:57.341Z,3.78
2022-12-25T22:29:46.269Z,3.77
2022-12-25T22:32:34.459Z,3.78
2022-12-25T22:35:23.265Z,3.80
2022-12-25T22:38:11.823Z,3.80
2022-12-25T22:41:04.427Z,3.80
2022-12-25T22:44:16.640Z,3.78
2022-12-25T22:47:01.402Z,3.72
2022-12-25T22:49:51.849Z,3.67
2022-12-25T22:52:40.567Z,3.61
2022-12-25T22:55:29.114Z,3.56
2022-12-25T22:58:18.165Z,3.49
2022-12-25T23:01:09.789Z,3.43
2022-12-25T23:03:58.608Z,3.37
2022-12-25T23:06:47.164Z,3.29
2022-12-25T23:09:35.939Z,3.23
2022-12-25T23:12:42.599Z,3.18
2022-12-25T23:15:31.998Z,3.11
2022-12-25T23:18:38.545Z,3.04
2022-12-25T23:21:46.209Z,2.96
2022-12-25T23:24:53.045Z,2.90
2022-12-25T23:27:41.902Z,2.83
2022-12-25T23:30:30.408Z,2.79
2022-12-25T23:33:18.990Z,2.76
2022-12-25T23:36:08.263Z,2.72
2022-12-25T23:38:57.627Z,2.68
2022-12-25T23:41:48.871Z,2.64
2022-12-25T23:44:37.551Z,2.59
2022-12-25T23:47:26.250Z,2.53
2022-12-25T23:50:14.852Z,2.47
2022-12-25T23:53:03.852Z,2.42
2022-12-25T23:55:55.830Z,2.38
2022-12-25T23:58:50.892Z,2.35
